sensor_id;sensor_type;location;lat;lon;timestamp;temperature;humidity
30174;DHT22;16985;50.814;8.530;2022-09-02T00:01:34;14.60;71.10
30174;DHT22;16985;50.814;8.530;2022-09-02T00:04:08;14.50;71.40
30174;DHT22;16985;50.814;8.530;2022-09-02T00:06:39;14.50;71.20
30174;DHT22;16985;50.814;8.530;2022-09-02T00:09:07;14.40;71.40
30174;DHT22;16985;50.814;8.530;2022-09-02T00:11:35;14.40;71.40
30174;DHT22;16985;50.814;8.530;2022-09-02T00:14:06;14.30;71.70
30174;DHT22;16985;50.814;8.530;2022-09-02T00:16:36;14.30;71.90
30174;DHT22;16985;50.814;8.530;2022-09-02T00:19:03;14.20;72.60
30174;DHT22;16985;50.814;8.530;2022-09-02T00:21:31;14.20;72.50
30174;DHT22;16985;50.814;8.530;2022-09-02T00:24:01;14.20;72.20
30174;DHT22;16985;50.814;8.530;2022-09-02T00:26:28;14.20;72.30
30174;DHT22;16985;50.814;8.530;2022-09-02T00:28:54;14.20;72.30
30174;DHT22;16985;50.814;8.530;2022-09-02T00:31:19;14.10;72.80
30174;DHT22;16985;50.814;8.530;2022-09-02T00:33:45;14.10;73.60
30174;DHT22;16985;50.814;8.530;2022-09-02T00:36:11;14.00;73.70
30174;DHT22;16985;50.814;8.530;2022-09-02T00:38:38;14.00;74.00
30174;DHT22;16985;50.814;8.530;2022-09-02T00:41:07;14.00;73.70
30174;DHT22;16985;50.814;8.530;2022-09-02T00:46:29;14.00;73.20
30174;DHT22;16985;50.814;8.530;2022-09-02T00:49:20;14.00;73.70
30174;DHT22;16985;50.814;8.530;2022-09-02T00:51:53;14.00;73.40
30174;DHT22;16985;50.814;8.530;2022-09-02T00:54:40;13.90;73.80
30174;DHT22;16985;50.814;8.530;2022-09-02T00:57:13;13.80;73.60
30174;DHT22;16985;50.814;8.530;2022-09-02T01:00:18;13.80;74.10
30174;DHT22;16985;50.814;8.530;2022-09-02T01:02:53;13.90;73.20
30174;DHT22;16985;50.814;8.530;2022-09-02T01:05:23;13.80;73.50
30174;DHT22;16985;50.814;8.530;2022-09-02T01:07:52;13.80;73.50
30174;DHT22;16985;50.814;8.530;2022-09-02T01:10:22;13.80;73.50
30174;DHT22;16985;50.814;8.530;2022-09-02T01:12:55;13.70;73.50
30174;DHT22;16985;50.814;8.530;2022-09-02T01:15:23;13.70;73.30
30174;DHT22;16985;50.814;8.530;2022-09-02T01:17:49;13.70;73.40
30174;DHT22;16985;50.814;8.530;2022-09-02T01:20:20;13.70;73.60
30174;DHT22;16985;50.814;8.530;2022-09-02T01:22:48;13.60;73.80
30174;DHT22;16985;50.814;8.530;2022-09-02T01:25:17;13.50;74.20
30174;DHT22;16985;50.814;8.530;2022-09-02T01:27:45;13.50;74.10
30174;DHT22;16985;50.814;8.530;2022-09-02T01:30:19;13.60;74.70
30174;DHT22;16985;50.814;8.530;2022-09-02T01:32:47;13.50;74.00
30174;DHT22;16985;50.814;8.530;2022-09-02T01:35:13;13.40;74.70
30174;DHT22;16985;50.814;8.530;2022-09-02T01:37:40;13.40;74.60
30174;DHT22;16985;50.814;8.530;2022-09-02T01:40:09;13.40;74.90
30174;DHT22;16985;50.814;8.530;2022-09-02T01:42:36;13.40;74.70
30174;DHT22;16985;50.814;8.530;2022-09-02T01:45:04;13.40;74.90
30174;DHT22;16985;50.814;8.530;2022-09-02T01:47:31;13.30;75.40
30174;DHT22;16985;50.814;8.530;2022-09-02T01:49:58;13.20;75.60
30174;DHT22;16985;50.814;8.530;2022-09-02T01:52:27;13.20;75.60
30174;DHT22;16985;50.814;8.530;2022-09-02T01:54:54;13.20;75.60
30174;DHT22;16985;50.814;8.530;2022-09-02T01:57:20;13.20;75.60
30174;DHT22;16985;50.814;8.530;2022-09-02T01:59:50;13.20;75.70
30174;DHT22;16985;50.814;8.530;2022-09-02T02:02:17;13.20;75.80
30174;DHT22;16985;50.814;8.530;2022-09-02T02:04:45;13.20;76.00
30174;DHT22;16985;50.814;8.530;2022-09-02T02:07:13;13.10;76.00
30174;DHT22;16985;50.814;8.530;2022-09-02T02:09:40;13.20;76.30
30174;DHT22;16985;50.814;8.530;2022-09-02T02:12:06;13.10;76.30
30174;DHT22;16985;50.814;8.530;2022-09-02T02:14:33;13.10;76.50
30174;DHT22;16985;50.814;8.530;2022-09-02T02:16:59;13.10;76.80
30174;DHT22;16985;50.814;8.530;2022-09-02T02:19:25;13.10;76.80
30174;DHT22;16985;50.814;8.530;2022-09-02T02:21:51;13.10;76.80
30174;DHT22;16985;50.814;8.530;2022-09-02T02:24:18;13.20;77.00
30174;DHT22;16985;50.814;8.530;2022-09-02T02:26:43;13.20;77.30
30174;DHT22;16985;50.814;8.530;2022-09-02T02:29:10;13.10;77.50
30174;DHT22;16985;50.814;8.530;2022-09-02T02:31:38;13.10;77.40
30174;DHT22;16985;50.814;8.530;2022-09-02T02:34:04;13.20;77.30
30174;DHT22;16985;50.814;8.530;2022-09-02T02:36:32;13.00;77.30
30174;DHT22;16985;50.814;8.530;2022-09-02T02:38:58;13.20;77.60
30174;DHT22;16985;50.814;8.530;2022-09-02T02:41:26;13.20;77.60
30174;DHT22;16985;50.814;8.530;2022-09-02T02:43:55;13.20;77.70
30174;DHT22;16985;50.814;8.530;2022-09-02T02:46:21;13.20;77.70
30174;DHT22;16985;50.814;8.530;2022-09-02T02:48:47;13.30;77.90
30174;DHT22;16985;50.814;8.530;2022-09-02T02:51:14;13.30;78.00
30174;DHT22;16985;50.814;8.530;2022-09-02T02:53:40;13.30;78.00
30174;DHT22;16985;50.814;8.530;2022-09-02T02:56:06;13.30;78.20
30174;DHT22;16985;50.814;8.530;2022-09-02T02:58:32;13.30;78.20
30174;DHT22;16985;50.814;8.530;2022-09-02T03:00:59;13.30;78.20
30174;DHT22;16985;50.814;8.530;2022-09-02T03:03:26;13.30;78.10
30174;DHT22;16985;50.814;8.530;2022-09-02T03:05:54;13.30;78.20
30174;DHT22;16985;50.814;8.530;2022-09-02T03:08:21;13.30;78.40
30174;DHT22;16985;50.814;8.530;2022-09-02T03:10:50;13.30;78.60
30174;DHT22;16985;50.814;8.530;2022-09-02T03:13:17;13.30;78.80
30174;DHT22;16985;50.814;8.530;2022-09-02T03:15:44;13.30;78.50
30174;DHT22;16985;50.814;8.530;2022-09-02T03:18:10;13.30;78.60
30174;DHT22;16985;50.814;8.530;2022-09-02T03:20:36;13.40;78.80
30174;DHT22;16985;50.814;8.530;2022-09-02T03:23:07;13.40;78.90
30174;DHT22;16985;50.814;8.530;2022-09-02T03:25:34;13.40;79.10
30174;DHT22;16985;50.814;8.530;2022-09-02T03:28:03;13.40;79.00
30174;DHT22;16985;50.814;8.530;2022-09-02T03:30:30;13.40;79.20
30174;DHT22;16985;50.814;8.530;2022-09-02T03:32:59;13.40;79.20
30174;DHT22;16985;50.814;8.530;2022-09-02T03:35:27;13.40;79.30
30174;DHT22;16985;50.814;8.530;2022-09-02T03:37:54;13.40;79.10
30174;DHT22;16985;50.814;8.530;2022-09-02T03:40:25;13.40;79.60
30174;DHT22;16985;50.814;8.530;2022-09-02T03:42:53;13.40;79.30
30174;DHT22;16985;50.814;8.530;2022-09-02T03:45:20;13.40;79.40
30174;DHT22;16985;50.814;8.530;2022-09-02T03:47:47;13.50;79.60
30174;DHT22;16985;50.814;8.530;2022-09-02T03:50:29;13.50;79.70
30174;DHT22;16985;50.814;8.530;2022-09-02T03:52:57;13.50;79.80
30174;DHT22;16985;50.814;8.530;2022-09-02T03:55:24;13.50;79.60
30174;DHT22;16985;50.814;8.530;2022-09-02T03:57:51;13.50;79.80
30174;DHT22;16985;50.814;8.530;2022-09-02T04:00:20;13.50;79.80
30174;DHT22;16985;50.814;8.530;2022-09-02T04:02:50;13.50;79.60
30174;DHT22;16985;50.814;8.530;2022-09-02T04:05:18;13.50;80.10
30174;DHT22;16985;50.814;8.530;2022-09-02T04:07:44;13.50;80.10
30174;DHT22;16985;50.814;8.530;2022-09-02T04:10:11;13.50;80.20
30174;DHT22;16985;50.814;8.530;2022-09-02T04:12:38;13.50;80.10
30174;DHT22;16985;50.814;8.530;2022-09-02T04:15:07;13.50;80.20
30174;DHT22;16985;50.814;8.530;2022-09-02T04:17:39;13.50;80.30
30174;DHT22;16985;50.814;8.530;2022-09-02T04:20:10;13.50;80.70
30174;DHT22;16985;50.814;8.530;2022-09-02T04:22:37;13.50;80.40
30174;DHT22;16985;50.814;8.530;2022-09-02T04:25:05;13.50;80.30
30174;DHT22;16985;50.814;8.530;2022-09-02T04:27:31;13.50;80.30
30174;DHT22;16985;50.814;8.530;2022-09-02T04:29:58;13.50;80.90
30174;DHT22;16985;50.814;8.530;2022-09-02T04:32:25;13.50;80.30
30174;DHT22;16985;50.814;8.530;2022-09-02T04:34:51;13.50;80.60
30174;DHT22;16985;50.814;8.530;2022-09-02T04:37:18;13.60;80.30
30174;DHT22;16985;50.814;8.530;2022-09-02T04:39:44;13.50;80.50
30174;DHT22;16985;50.814;8.530;2022-09-02T04:42:10;13.60;80.50
30174;DHT22;16985;50.814;8.530;2022-09-02T04:44:36;13.50;80.40
30174;DHT22;16985;50.814;8.530;2022-09-02T04:47:02;13.50;80.60
30174;DHT22;16985;50.814;8.530;2022-09-02T04:49:28;13.60;80.60
30174;DHT22;16985;50.814;8.530;2022-09-02T04:51:57;13.50;80.70
30174;DHT22;16985;50.814;8.530;2022-09-02T04:54:25;13.50;80.70
30174;DHT22;16985;50.814;8.530;2022-09-02T04:56:52;13.60;80.80
30174;DHT22;16985;50.814;8.530;2022-09-02T04:59:19;13.60;80.80
30174;DHT22;16985;50.814;8.530;2022-09-02T05:01:54;13.60;81.00
30174;DHT22;16985;50.814;8.530;2022-09-02T05:04:24;13.60;81.10
30174;DHT22;16985;50.814;8.530;2022-09-02T05:06:51;13.60;82.00
30174;DHT22;16985;50.814;8.530;2022-09-02T05:09:19;13.60;81.00
30174;DHT22;16985;50.814;8.530;2022-09-02T05:11:51;13.60;81.00
30174;DHT22;16985;50.814;8.530;2022-09-02T05:14:20;13.60;81.00
30174;DHT22;16985;50.814;8.530;2022-09-02T05:16:48;13.60;81.30
30174;DHT22;16985;50.814;8.530;2022-09-02T05:19:19;13.60;81.10
30174;DHT22;16985;50.814;8.530;2022-09-02T05:21:49;13.60;81.20
30174;DHT22;16985;50.814;8.530;2022-09-02T05:24:24;13.70;81.50
30174;DHT22;16985;50.814;8.530;2022-09-02T05:26:50;13.70;81.60
30174;DHT22;16985;50.814;8.530;2022-09-02T05:29:16;13.70;81.60
30174;DHT22;16985;50.814;8.530;2022-09-02T05:31:47;13.70;81.50
30174;DHT22;16985;50.814;8.530;2022-09-02T05:34:14;13.70;81.80
30174;DHT22;16985;50.814;8.530;2022-09-02T05:36:41;13.70;82.00
30174;DHT22;16985;50.814;8.530;2022-09-02T05:39:07;13.70;81.70
30174;DHT22;16985;50.814;8.530;2022-09-02T05:41:34;13.80;82.00
30174;DHT22;16985;50.814;8.530;2022-09-02T05:44:04;13.80;82.00
30174;DHT22;16985;50.814;8.530;2022-09-02T05:46:31;13.80;82.10
30174;DHT22;16985;50.814;8.530;2022-09-02T05:48:58;13.80;82.20
30174;DHT22;16985;50.814;8.530;2022-09-02T05:54:26;13.90;82.40
30174;DHT22;16985;50.814;8.530;2022-09-02T05:57:01;13.90;82.50
30174;DHT22;16985;50.814;8.530;2022-09-02T05:59:31;13.90;82.20
30174;DHT22;16985;50.814;8.530;2022-09-02T06:02:01;13.90;82.50
30174;DHT22;16985;50.814;8.530;2022-09-02T06:04:27;14.00;82.70
30174;DHT22;16985;50.814;8.530;2022-09-02T06:06:53;14.00;82.20
30174;DHT22;16985;50.814;8.530;2022-09-02T06:09:21;14.00;82.30
30174;DHT22;16985;50.814;8.530;2022-09-02T06:11:50;14.00;82.40
30174;DHT22;16985;50.814;8.530;2022-09-02T06:14:22;14.10;82.30
30174;DHT22;16985;50.814;8.530;2022-09-02T06:16:52;14.10;82.50
30174;DHT22;16985;50.814;8.530;2022-09-02T06:19:26;14.10;82.40
30174;DHT22;16985;50.814;8.530;2022-09-02T06:21:59;14.20;82.30
30174;DHT22;16985;50.814;8.530;2022-09-02T06:24:30;14.20;82.40
30174;DHT22;16985;50.814;8.530;2022-09-02T06:26:59;14.20;82.40
30174;DHT22;16985;50.814;8.530;2022-09-02T06:29:26;14.30;82.30
30174;DHT22;16985;50.814;8.530;2022-09-02T06:31:53;14.30;82.20
30174;DHT22;16985;50.814;8.530;2022-09-02T06:34:22;14.30;82.10
30174;DHT22;16985;50.814;8.530;2022-09-02T06:36:50;14.30;81.90
30174;DHT22;16985;50.814;8.530;2022-09-02T06:39:19;14.40;82.00
30174;DHT22;16985;50.814;8.530;2022-09-02T06:41:47;14.40;81.80
30174;DHT22;16985;50.814;8.530;2022-09-02T06:44:16;14.50;81.80
30174;DHT22;16985;50.814;8.530;2022-09-02T06:46:46;14.50;81.40
30174;DHT22;16985;50.814;8.530;2022-09-02T06:49:18;14.60;81.30
30174;DHT22;16985;50.814;8.530;2022-09-02T06:51:48;14.60;81.30
30174;DHT22;16985;50.814;8.530;2022-09-02T06:54:18;14.70;81.30
30174;DHT22;16985;50.814;8.530;2022-09-02T06:56:48;14.70;81.00
30174;DHT22;16985;50.814;8.530;2022-09-02T06:59:17;14.30;80.60
30174;DHT22;16985;50.814;8.530;2022-09-02T07:01:47;14.80;80.70
30174;DHT22;16985;50.814;8.530;2022-09-02T07:04:17;14.80;80.30
30174;DHT22;16985;50.814;8.530;2022-09-02T07:07:05;14.90;79.90
30174;DHT22;16985;50.814;8.530;2022-09-02T07:09:38;14.90;79.60
30174;DHT22;16985;50.814;8.530;2022-09-02T07:12:13;14.90;79.50
30174;DHT22;16985;50.814;8.530;2022-09-02T07:14:47;15.00;79.40
30174;DHT22;16985;50.814;8.530;2022-09-02T07:17:19;15.00;79.20
30174;DHT22;16985;50.814;8.530;2022-09-02T07:19:51;15.10;79.20
30174;DHT22;16985;50.814;8.530;2022-09-02T07:22:20;15.10;78.80
30174;DHT22;16985;50.814;8.530;2022-09-02T07:24:46;15.20;78.50
30174;DHT22;16985;50.814;8.530;2022-09-02T07:27:12;15.20;78.30
30174;DHT22;16985;50.814;8.530;2022-09-02T07:29:40;15.30;78.80
30174;DHT22;16985;50.814;8.530;2022-09-02T07:32:10;15.40;78.40
30174;DHT22;16985;50.814;8.530;2022-09-02T07:34:36;14.60;77.60
30174;DHT22;16985;50.814;8.530;2022-09-02T07:37:05;15.50;77.90
30174;DHT22;16985;50.814;8.530;2022-09-02T07:39:31;15.50;77.60
30174;DHT22;16985;50.814;8.530;2022-09-02T07:41:57;15.60;77.50
30174;DHT22;16985;50.814;8.530;2022-09-02T07:44:24;15.70;77.30
30174;DHT22;16985;50.814;8.530;2022-09-02T07:46:51;15.70;77.10
30174;DHT22;16985;50.814;8.530;2022-09-02T07:49:19;15.80;76.90
30174;DHT22;16985;50.814;8.530;2022-09-02T07:51:49;15.80;76.80
30174;DHT22;16985;50.814;8.530;2022-09-02T07:54:21;15.90;76.70
30174;DHT22;16985;50.814;8.530;2022-09-02T07:56:50;15.90;76.40
30174;DHT22;16985;50.814;8.530;2022-09-02T07:59:18;16.00;76.40
30174;DHT22;16985;50.814;8.530;2022-09-02T08:01:47;16.10;76.20
30174;DHT22;16985;50.814;8.530;2022-09-02T08:04:15;16.10;75.90
30174;DHT22;16985;50.814;8.530;2022-09-02T08:06:41;16.30;75.80
30174;DHT22;16985;50.814;8.530;2022-09-02T08:09:08;16.30;75.60
30174;DHT22;16985;50.814;8.530;2022-09-02T08:11:40;16.40;75.40
30174;DHT22;16985;50.814;8.530;2022-09-02T08:14:12;16.50;75.20
30174;DHT22;16985;50.814;8.530;2022-09-02T08:16:43;16.60;74.90
30174;DHT22;16985;50.814;8.530;2022-09-02T08:19:10;16.70;74.70
30174;DHT22;16985;50.814;8.530;2022-09-02T08:21:36;16.70;74.50
30174;DHT22;16985;50.814;8.530;2022-09-02T08:24:02;16.70;74.20
30174;DHT22;16985;50.814;8.530;2022-09-02T08:26:29;16.90;74.10
30174;DHT22;16985;50.814;8.530;2022-09-02T08:28:55;16.90;73.80
30174;DHT22;16985;50.814;8.530;2022-09-02T08:31:21;17.00;73.50
30174;DHT22;16985;50.814;8.530;2022-09-02T08:33:47;17.10;73.50
30174;DHT22;16985;50.814;8.530;2022-09-02T08:36:13;17.20;73.30
30174;DHT22;16985;50.814;8.530;2022-09-02T08:38:40;17.20;73.20
30174;DHT22;16985;50.814;8.530;2022-09-02T08:41:21;17.30;73.20
30174;DHT22;16985;50.814;8.530;2022-09-02T08:43:54;17.50;73.10
30174;DHT22;16985;50.814;8.530;2022-09-02T08:46:23;17.50;72.60
30174;DHT22;16985;50.814;8.530;2022-09-02T08:54:28;17.80;71.80
30174;DHT22;16985;50.814;8.530;2022-09-02T08:56:57;17.90;71.40
30174;DHT22;16985;50.814;8.530;2022-09-02T08:59:24;18.80;71.50
30174;DHT22;16985;50.814;8.530;2022-09-02T09:05:09;18.30;70.50
30174;DHT22;16985;50.814;8.530;2022-09-02T09:08:09;18.30;70.20
30174;DHT22;16985;50.814;8.530;2022-09-02T09:11:20;18.50;69.80
30174;DHT22;16985;50.814;8.530;2022-09-02T09:17:44;18.70;69.40
30174;DHT22;16985;50.814;8.530;2022-09-02T09:20:31;18.80;69.00
30174;DHT22;16985;50.814;8.530;2022-09-02T09:23:01;18.90;68.70
30174;DHT22;16985;50.814;8.530;2022-09-02T09:25:52;19.00;68.60
30174;DHT22;16985;50.814;8.530;2022-09-02T09:28:21;19.20;68.50
30174;DHT22;16985;50.814;8.530;2022-09-02T09:30:47;19.40;68.10
30174;DHT22;16985;50.814;8.530;2022-09-02T09:33:15;19.60;67.80
30174;DHT22;16985;50.814;8.530;2022-09-02T09:35:49;19.80;67.40
30174;DHT22;16985;50.814;8.530;2022-09-02T09:38:28;20.00;66.80
30174;DHT22;16985;50.814;8.530;2022-09-02T09:41:11;20.20;66.30
30174;DHT22;16985;50.814;8.530;2022-09-02T09:43:38;20.50;64.60
30174;DHT22;16985;50.814;8.530;2022-09-02T09:46:25;20.60;63.90
30174;DHT22;16985;50.814;8.530;2022-09-02T09:48:53;20.90;63.80
30174;DHT22;16985;50.814;8.530;2022-09-02T09:51:19;21.00;63.40
30174;DHT22;16985;50.814;8.530;2022-09-02T09:53:45;21.20;62.90
30174;DHT22;16985;50.814;8.530;2022-09-02T10:01:17;21.70;61.60
30174;DHT22;16985;50.814;8.530;2022-09-02T10:09:04;22.20;60.30
30174;DHT22;16985;50.814;8.530;2022-09-02T10:11:35;22.40;59.90
30174;DHT22;16985;50.814;8.530;2022-09-02T10:14:05;22.50;59.40
30174;DHT22;16985;50.814;8.530;2022-09-02T10:19:58;22.80;58.40
30174;DHT22;16985;50.814;8.530;2022-09-02T10:25:51;23.10;57.20
30174;DHT22;16985;50.814;8.530;2022-09-02T10:29:01;23.40;55.70
30174;DHT22;16985;50.814;8.530;2022-09-02T10:32:05;23.50;55.20
30174;DHT22;16985;50.814;8.530;2022-09-02T10:37:18;23.70;54.50
30174;DHT22;16985;50.814;8.530;2022-09-02T10:51:44;23.70;50.80
30174;DHT22;16985;50.814;8.530;2022-09-02T10:57:10;23.40;52.30
30174;DHT22;16985;50.814;8.530;2022-09-02T10:59:55;23.30;52.80
30174;DHT22;16985;50.814;8.530;2022-09-02T11:02:31;23.10;53.00
30174;DHT22;16985;50.814;8.530;2022-09-02T11:05:26;23.10;53.30
30174;DHT22;16985;50.814;8.530;2022-09-02T11:07:54;23.00;53.50
30174;DHT22;16985;50.814;8.530;2022-09-02T11:10:30;23.00;53.70
30174;DHT22;16985;50.814;8.530;2022-09-02T11:13:13;23.00;53.80
30174;DHT22;16985;50.814;8.530;2022-09-02T11:15:50;23.00;53.80
30174;DHT22;16985;50.814;8.530;2022-09-02T11:18:31;23.00;53.60
30174;DHT22;16985;50.814;8.530;2022-09-02T11:24:20;23.20;53.50
30174;DHT22;16985;50.814;8.530;2022-09-02T11:27:11;23.80;52.80
30174;DHT22;16985;50.814;8.530;2022-09-02T11:32:34;23.30;52.70
30174;DHT22;16985;50.814;8.530;2022-09-02T11:35:06;23.20;52.70
30174;DHT22;16985;50.814;8.530;2022-09-02T11:37:47;23.30;52.70
30174;DHT22;16985;50.814;8.530;2022-09-02T11:43:21;23.40;51.20
30174;DHT22;16985;50.814;8.530;2022-09-02T11:52:37;23.60;50.70
30174;DHT22;16985;50.814;8.530;2022-09-02T11:55:21;23.80;50.20
30174;DHT22;16985;50.814;8.530;2022-09-02T11:57:56;23.80;50.00
30174;DHT22;16985;50.814;8.530;2022-09-02T12:03:13;24.00;49.80
30174;DHT22;16985;50.814;8.530;2022-09-02T12:05:46;24.00;49.20
30174;DHT22;16985;50.814;8.530;2022-09-02T12:13:46;24.20;49.00
30174;DHT22;16985;50.814;8.530;2022-09-02T12:21:22;24.40;48.20
30174;DHT22;16985;50.814;8.530;2022-09-02T12:26:23;24.40;48.10
30174;DHT22;16985;50.814;8.530;2022-09-02T12:31:46;24.40;48.30
30174;DHT22;16985;50.814;8.530;2022-09-02T12:37:00;24.40;46.40
30174;DHT22;16985;50.814;8.530;2022-09-02T12:45:13;24.60;47.30
30174;DHT22;16985;50.814;8.530;2022-09-02T12:48:33;24.60;47.20
30174;DHT22;16985;50.814;8.530;2022-09-02T12:50:52;24.70;47.20
30174;DHT22;16985;50.814;8.530;2022-09-02T12:58:43;24.60;46.80
30174;DHT22;16985;50.814;8.530;2022-09-02T13:01:43;24.60;46.80
30174;DHT22;16985;50.814;8.530;2022-09-02T13:04:28;24.60;46.60
30174;DHT22;16985;50.814;8.530;2022-09-02T13:10:30;24.60;47.20
30174;DHT22;16985;50.814;8.530;2022-09-02T13:23:18;25.20;46.90
30174;DHT22;16985;50.814;8.530;2022-09-02T13:26:13;25.10;47.00
30174;DHT22;16985;50.814;8.530;2022-09-02T13:31:23;25.00;46.10
30174;DHT22;16985;50.814;8.530;2022-09-02T13:34:05;24.90;46.30
30174;DHT22;16985;50.814;8.530;2022-09-02T13:36:45;24.90;46.60
30174;DHT22;16985;50.814;8.530;2022-09-02T13:39:25;24.70;46.50
30174;DHT22;16985;50.814;8.530;2022-09-02T13:41:52;24.60;47.00
30174;DHT22;16985;50.814;8.530;2022-09-02T13:44:24;24.50;47.00
30174;DHT22;16985;50.814;8.530;2022-09-02T13:46:54;24.50;47.10
30174;DHT22;16985;50.814;8.530;2022-09-02T13:49:34;24.40;47.20
30174;DHT22;16985;50.814;8.530;2022-09-02T13:52:01;24.40;47.40
30174;DHT22;16985;50.814;8.530;2022-09-02T13:54:33;24.40;47.40
30174;DHT22;16985;50.814;8.530;2022-09-02T13:57:05;24.40;47.40
30174;DHT22;16985;50.814;8.530;2022-09-02T13:59:37;24.30;47.40
30174;DHT22;16985;50.814;8.530;2022-09-02T14:02:27;24.40;47.70
30174;DHT22;16985;50.814;8.530;2022-09-02T14:05:00;24.40;47.70
30174;DHT22;16985;50.814;8.530;2022-09-02T14:07:47;24.40;47.40
30174;DHT22;16985;50.814;8.530;2022-09-02T14:10:18;24.60;47.30
30174;DHT22;16985;50.814;8.530;2022-09-02T14:12:47;24.70;46.90
30174;DHT22;16985;50.814;8.530;2022-09-02T14:15:15;24.70;46.80
30174;DHT22;16985;50.814;8.530;2022-09-02T14:17:43;24.80;46.40
30174;DHT22;16985;50.814;8.530;2022-09-02T14:20:22;24.80;45.90
30174;DHT22;16985;50.814;8.530;2022-09-02T14:22:52;24.90;46.30
30174;DHT22;16985;50.814;8.530;2022-09-02T14:25:22;24.90;46.40
30174;DHT22;16985;50.814;8.530;2022-09-02T14:27:54;25.10;46.30
30174;DHT22;16985;50.814;8.530;2022-09-02T14:30:36;25.20;46.30
30174;DHT22;16985;50.814;8.530;2022-09-02T14:33:22;25.30;45.90
30174;DHT22;16985;50.814;8.530;2022-09-02T14:38:50;25.40;45.10
30174;DHT22;16985;50.814;8.530;2022-09-02T14:41:27;25.30;44.50
30174;DHT22;16985;50.814;8.530;2022-09-02T14:43:59;25.30;44.10
30174;DHT22;16985;50.814;8.530;2022-09-02T14:46:43;25.20;44.20
30174;DHT22;16985;50.814;8.530;2022-09-02T14:54:48;25.30;45.00
30174;DHT22;16985;50.814;8.530;2022-09-02T14:57:33;25.30;45.20
30174;DHT22;16985;50.814;8.530;2022-09-02T15:00:11;25.40;44.80
30174;DHT22;16985;50.814;8.530;2022-09-02T15:02:41;25.40;44.60
30174;DHT22;16985;50.814;8.530;2022-09-02T15:05:11;25.50;44.80
30174;DHT22;16985;50.814;8.530;2022-09-02T15:07:41;25.60;44.30
30174;DHT22;16985;50.814;8.530;2022-09-02T15:10:07;25.70;44.10
30174;DHT22;16985;50.814;8.530;2022-09-02T15:12:38;25.80;44.60
30174;DHT22;16985;50.814;8.530;2022-09-02T15:15:07;25.90;43.50
30174;DHT22;16985;50.814;8.530;2022-09-02T15:17:33;26.00;43.20
30174;DHT22;16985;50.814;8.530;2022-09-02T15:19:59;26.10;43.20
30174;DHT22;16985;50.814;8.530;2022-09-02T15:22:25;26.00;43.30
30174;DHT22;16985;50.814;8.530;2022-09-02T15:24:51;26.00;43.70
30174;DHT22;16985;50.814;8.530;2022-09-02T15:27:17;26.60;43.70
30174;DHT22;16985;50.814;8.530;2022-09-02T15:29:43;25.90;43.60
30174;DHT22;16985;50.814;8.530;2022-09-02T15:32:08;25.90;43.70
30174;DHT22;16985;50.814;8.530;2022-09-02T15:34:34;25.80;43.60
30174;DHT22;16985;50.814;8.530;2022-09-02T15:37:00;25.90;43.80
30174;DHT22;16985;50.814;8.530;2022-09-02T15:39:27;25.80;43.50
30174;DHT22;16985;50.814;8.530;2022-09-02T15:41:53;25.70;43.30
30174;DHT22;16985;50.814;8.530;2022-09-02T15:44:20;25.60;43.60
30174;DHT22;16985;50.814;8.530;2022-09-02T15:46:50;25.50;43.90
30174;DHT22;16985;50.814;8.530;2022-09-02T15:49:20;25.40;44.20
30174;DHT22;16985;50.814;8.530;2022-09-02T15:51:47;25.30;44.50
30174;DHT22;16985;50.814;8.530;2022-09-02T15:54:21;25.30;44.50
30174;DHT22;16985;50.814;8.530;2022-09-02T15:56:50;25.20;44.20
30174;DHT22;16985;50.814;8.530;2022-09-02T15:59:19;25.20;44.40
30174;DHT22;16985;50.814;8.530;2022-09-02T16:01:51;25.20;44.50
30174;DHT22;16985;50.814;8.530;2022-09-02T16:04:19;25.10;44.30
30174;DHT22;16985;50.814;8.530;2022-09-02T16:06:47;25.00;44.50
30174;DHT22;16985;50.814;8.530;2022-09-02T16:09:15;25.00;44.50
30174;DHT22;16985;50.814;8.530;2022-09-02T16:11:44;24.90;44.60
30174;DHT22;16985;50.814;8.530;2022-09-02T16:14:21;24.70;44.70
30174;DHT22;16985;50.814;8.530;2022-09-02T16:16:49;24.60;44.50
30174;DHT22;16985;50.814;8.530;2022-09-02T16:19:18;24.40;44.50
30174;DHT22;16985;50.814;8.530;2022-09-02T16:21:46;24.40;44.90
30174;DHT22;16985;50.814;8.530;2022-09-02T16:24:12;24.40;45.10
30174;DHT22;16985;50.814;8.530;2022-09-02T16:26:40;24.30;45.10
30174;DHT22;16985;50.814;8.530;2022-09-02T16:29:08;24.20;45.30
30174;DHT22;16985;50.814;8.530;2022-09-02T16:31:39;24.00;45.30
30174;DHT22;16985;50.814;8.530;2022-09-02T16:34:08;24.00;45.70
30174;DHT22;16985;50.814;8.530;2022-09-02T16:36:37;24.00;45.70
30174;DHT22;16985;50.814;8.530;2022-09-02T16:39:05;23.90;45.90
30174;DHT22;16985;50.814;8.530;2022-09-02T16:44:06;23.80;45.80
30174;DHT22;16985;50.814;8.530;2022-09-02T16:46:34;23.80;45.80
30174;DHT22;16985;50.814;8.530;2022-09-02T16:49:01;23.80;45.70
30174;DHT22;16985;50.814;8.530;2022-09-02T16:51:27;23.70;45.90
30174;DHT22;16985;50.814;8.530;2022-09-02T16:53:57;23.70;46.20
30174;DHT22;16985;50.814;8.530;2022-09-02T16:56:24;23.60;46.20
30174;DHT22;16985;50.814;8.530;2022-09-02T16:58:52;23.60;46.20
30174;DHT22;16985;50.814;8.530;2022-09-02T17:01:19;23.60;46.30
30174;DHT22;16985;50.814;8.530;2022-09-02T17:03:46;23.50;46.60
30174;DHT22;16985;50.814;8.530;2022-09-02T17:06:13;23.50;46.70
30174;DHT22;16985;50.814;8.530;2022-09-02T17:08:39;23.50;46.50
30174;DHT22;16985;50.814;8.530;2022-09-02T17:13:58;23.40;46.30
30174;DHT22;16985;50.814;8.530;2022-09-02T17:16:29;23.30;46.40
30174;DHT22;16985;50.814;8.530;2022-09-02T17:19:00;23.20;46.90
30174;DHT22;16985;50.814;8.530;2022-09-02T17:21:32;23.20;47.20
30174;DHT22;16985;50.814;8.530;2022-09-02T17:24:01;23.10;47.50
30174;DHT22;16985;50.814;8.530;2022-09-02T17:26:30;23.00;47.40
30174;DHT22;16985;50.814;8.530;2022-09-02T17:28:59;22.90;47.70
30174;DHT22;16985;50.814;8.530;2022-09-02T17:31:27;22.80;48.00
30174;DHT22;16985;50.814;8.530;2022-09-02T17:33:57;22.80;48.10
30174;DHT22;16985;50.814;8.530;2022-09-02T17:36:27;23.20;48.50
30174;DHT22;16985;50.814;8.530;2022-09-02T17:38:59;22.80;48.60
30174;DHT22;16985;50.814;8.530;2022-09-02T17:41:27;22.50;49.00
30174;DHT22;16985;50.814;8.530;2022-09-02T17:44:12;22.10;48.90
30174;DHT22;16985;50.814;8.530;2022-09-02T17:46:40;22.30;49.40
30174;DHT22;16985;50.814;8.530;2022-09-02T17:49:07;22.20;49.70
30174;DHT22;16985;50.814;8.530;2022-09-02T17:51:34;22.10;49.70
30174;DHT22;16985;50.814;8.530;2022-09-02T17:54:00;22.00;49.90
30174;DHT22;16985;50.814;8.530;2022-09-02T18:00:02;21.80;49.90
30174;DHT22;16985;50.814;8.530;2022-09-02T18:05:41;21.60;50.30
30174;DHT22;16985;50.814;8.530;2022-09-02T18:11:09;21.30;50.90
30174;DHT22;16985;50.814;8.530;2022-09-02T18:23:19;20.90;51.90